createdAt,value
2023-04-08T00:01:06.877Z,43.10
2023-04-08T00:03:33.863Z,37.88
2023-04-08T00:06:02.771Z,40.63
2023-04-08T00:08:29.619Z,44.28
2023-04-08T00:10:56.856Z,38.85
2023-04-08T00:13:24.037Z,43.20
2023-04-08T00:15:51.149Z,37.30
2023-04-08T00:18:17.983Z,32.95
2023-04-08T00:20:45.224Z,32.20
2023-04-08T00:23:12.328Z,43.08
2023-04-08T00:25:39.527Z,39.33
2023-04-08T00:28:06.513Z,32.40
2023-04-08T00:30:34.818Z,32.60
2023-04-08T00:33:01.968Z,40.55
2023-04-08T00:35:29.519Z,41.08
2023-04-08T00:37:56.603Z,33.45
2023-04-08T00:40:23.383Z,38.45
2023-04-08T00:42:50.681Z,47.38
2023-04-08T00:45:17.873Z,34.97
2023-04-08T00:47:44.885Z,34.28
2023-04-08T00:50:12.157Z,32.85
2023-04-08T00:52:39.308Z,38.83
2023-04-08T00:55:07.050Z,33.20
2023-04-08T00:57:34.089Z,38.65
2023-04-08T01:00:01.092Z,40.28
2023-04-08T01:02:57.887Z,34.55
2023-04-08T01:05:30.908Z,38.28
2023-04-08T01:08:02.126Z,35.72
2023-04-08T01:10:35.146Z,41.13
2023-04-08T01:15:33.519Z,35.85
2023-04-08T01:18:02.361Z,32.83
2023-04-08T01:20:29.933Z,38.55
2023-04-08T01:23:30.276Z,45.00
2023-04-08T01:25:57.780Z,38.40
2023-04-08T01:28:28.248Z,44.42
2023-04-08T01:31:00.609Z,45.80
2023-04-08T01:33:29.232Z,47.88
2023-04-08T01:35:57.592Z,43.78
2023-04-08T01:38:26.630Z,42.63
2023-04-08T01:40:56.136Z,49.47
2023-04-08T01:43:24.924Z,38.65
2023-04-08T01:45:58.589Z,36.40
2023-04-08T01:48:27.089Z,38.97
2023-04-08T01:50:55.965Z,47.72
2023-04-08T01:53:23.148Z,46.20
2023-04-08T01:55:55.728Z,43.50
2023-04-08T01:58:25.192Z,43.22
2023-04-08T02:00:54.480Z,48.10
2023-04-08T02:03:24.314Z,50.25
2023-04-08T02:05:51.274Z,49.05
2023-04-08T02:08:18.222Z,46.97
2023-04-08T02:10:45.029Z,49.03
2023-04-08T02:13:12.206Z,54.95
2023-04-08T02:15:46.719Z,44.47
2023-04-08T02:18:21.034Z,51.53
2023-04-08T02:20:54.759Z,51.42
2023-04-08T02:23:25.247Z,48.15
2023-04-08T02:25:55.842Z,46.67
2023-04-08T02:28:23.837Z,54.05
2023-04-08T02:30:52.909Z,50.75
2023-04-08T02:33:22.588Z,56.17
2023-04-08T02:35:52.459Z,50.58
2023-04-08T02:38:19.687Z,55.40
2023-04-08T02:40:46.498Z,53.55
2023-04-08T02:43:13.401Z,56.90
2023-04-08T02:45:42.829Z,59.53
2023-04-08T02:48:10.314Z,56.28
2023-04-08T02:50:37.584Z,65.68
2023-04-08T02:53:04.961Z,56.72
2023-04-08T02:55:31.754Z,57.85
2023-04-08T02:57:58.692Z,69.68
2023-04-08T03:00:25.893Z,64.22
2023-04-08T03:02:53.142Z,65.82
2023-04-08T03:05:20.150Z,68.85
2023-04-08T03:07:46.951Z,74.07
2023-04-08T03:10:13.898Z,62.40
2023-04-08T03:12:40.896Z,70.22
2023-04-08T03:15:08.539Z,66.38
2023-04-08T03:17:35.824Z,70.45
2023-04-08T03:20:05.266Z,80.07
2023-04-08T03:22:33.176Z,71.75
2023-04-08T03:25:00.426Z,68.53
2023-04-08T03:27:27.524Z,68.93
2023-04-08T03:29:54.437Z,67.03
2023-04-08T03:32:21.785Z,59.95
2023-04-08T03:34:51.140Z,83.25
2023-04-08T03:37:18.728Z,63.92
2023-04-08T03:39:46.740Z,66.40
2023-04-08T03:42:13.628Z,65.10
2023-04-08T03:44:40.648Z,63.80
2023-04-08T03:47:07.502Z,70.18
2023-04-08T03:49:34.525Z,71.13
2023-04-08T03:52:01.631Z,75.13
2023-04-08T03:54:28.804Z,65.47
2023-04-08T03:56:55.862Z,65.70
2023-04-08T03:59:23.226Z,64.35
2023-04-08T04:01:51.433Z,71.38
2023-04-08T04:04:18.534Z,77.50
2023-04-08T04:06:45.731Z,78.80
2023-04-08T04:09:12.749Z,72.95
2023-04-08T04:11:39.504Z,76.93
2023-04-08T04:14:06.567Z,86.47
2023-04-08T04:16:33.389Z,74.63
2023-04-08T04:19:00.424Z,83.88
2023-04-08T04:21:27.392Z,79.70
2023-04-08T04:23:54.230Z,86.75
2023-04-08T04:26:21.293Z,83.32
2023-04-08T04:28:48.643Z,87.65
2023-04-08T04:31:23.975Z,79.63
2023-04-08T04:33:50.822Z,81.35
2023-04-08T04:36:17.906Z,84.93
2023-04-08T04:38:46.172Z,88.45
2023-04-08T04:41:13.710Z,82.82
2023-04-08T04:43:41.159Z,81.72
2023-04-08T04:46:09.180Z,94.03
2023-04-08T04:48:36.467Z,89.90
2023-04-08T04:51:03.890Z,81.75
2023-04-08T04:53:31.917Z,83.90
2023-04-08T04:56:01.594Z,94.63
2023-04-08T04:58:28.803Z,83.70
2023-04-08T05:00:56.798Z,90.57
2023-04-08T05:03:23.900Z,89.32
2023-04-08T05:05:54.432Z,98.53
2023-04-08T05:08:22.508Z,100.43
2023-04-08T05:10:52.009Z,98.13
2023-04-08T05:13:19.328Z,90.20
2023-04-08T05:15:46.518Z,97.63
2023-04-08T05:18:13.493Z,88.88
2023-04-08T05:20:40.759Z,97.93
2023-04-08T05:23:08.132Z,87.55
2023-04-08T05:25:35.073Z,91.28
2023-04-08T05:28:02.237Z,93.40
2023-04-08T05:30:29.369Z,81.22
2023-04-08T05:32:59.311Z,97.00
2023-04-08T05:35:27.278Z,84.82
2023-04-08T05:37:54.522Z,93.75
2023-04-08T05:40:21.569Z,99.70
2023-04-08T05:42:48.420Z,94.45
2023-04-08T05:45:16.385Z,91.20
2023-04-08T05:47:43.678Z,99.88
2023-04-08T05:50:11.685Z,98.53
2023-04-08T05:52:44.030Z,98.80
2023-04-08T05:55:11.960Z,97.25
2023-04-08T05:57:38.757Z,95.47
2023-04-08T06:00:08.608Z,94.13
2023-04-08T06:02:36.662Z,90.07
2023-04-08T06:05:04.861Z,99.03
2023-04-08T06:07:33.016Z,107.38
2023-04-08T06:10:00.180Z,98.85
2023-04-08T06:12:27.287Z,89.07
2023-04-08T06:14:57.393Z,94.47
2023-04-08T06:17:24.737Z,92.10
2023-04-08T06:19:51.957Z,92.22
2023-04-08T06:22:19.159Z,88.88
2023-04-08T06:24:48.320Z,85.55
2023-04-08T06:27:16.046Z,89.70
2023-04-08T06:29:43.382Z,85.15
2023-04-08T06:32:10.913Z,87.55
2023-04-08T06:34:38.254Z,93.40
2023-04-08T06:37:06.482Z,83.95
2023-04-08T06:39:33.779Z,80.93
2023-04-08T06:42:00.582Z,88.63
2023-04-08T06:44:27.643Z,74.28
2023-04-08T06:46:54.495Z,78.88
2023-04-08T06:49:21.686Z,88.38
2023-04-08T06:51:49.175Z,80.97
2023-04-08T06:54:15.957Z,78.70
2023-04-08T06:56:43.365Z,81.40
2023-04-08T06:59:10.451Z,77.70
2023-04-08T07:01:37.664Z,84.40
2023-04-08T07:04:04.867Z,84.45
2023-04-08T07:06:32.422Z,80.43
2023-04-08T07:08:59.190Z,81.93
2023-04-08T07:11:26.770Z,92.55
2023-04-08T07:13:53.905Z,90.72
2023-04-08T07:16:21.567Z,88.35
2023-04-08T07:18:49.290Z,90.90
2023-04-08T07:21:18.378Z,87.78
2023-04-08T07:23:45.741Z,84.75
2023-04-08T07:26:12.850Z,81.07
2023-04-08T07:28:41.357Z,84.45
2023-04-08T07:31:16.209Z,94.22
2023-04-08T07:33:44.472Z,81.75
2023-04-08T07:36:12.975Z,80.28
2023-04-08T07:38:40.949Z,81.60
2023-04-08T07:41:08.013Z,84.22
2023-04-08T07:43:37.015Z,75.97
2023-04-08T07:46:05.812Z,76.68
2023-04-08T07:48:33.914Z,77.40
2023-04-08T07:51:08.502Z,77.95
2023-04-08T07:53:37.731Z,73.03
2023-04-08T07:56:11.665Z,74.43
2023-04-08T07:58:38.751Z,72.78
2023-04-08T08:01:06.486Z,74.47
2023-04-08T08:03:34.150Z,69.00
2023-04-08T08:06:01.813Z,68.40
2023-04-08T08:08:28.624Z,72.75
2023-04-08T08:10:55.600Z,64.45
2023-04-08T08:13:22.766Z,65.45
2023-04-08T08:15:53.591Z,64.32
2023-04-08T08:18:21.113Z,61.03
2023-04-08T08:20:47.955Z,70.00
2023-04-08T08:23:15.080Z,66.63
2023-04-08T08:25:42.178Z,64.75
2023-04-08T08:28:09.130Z,62.78
2023-04-08T08:30:36.062Z,61.47
2023-04-08T08:33:03.267Z,69.30
2023-04-08T08:35:30.135Z,64.53
2023-04-08T08:37:57.349Z,66.57
2023-04-08T08:40:24.218Z,67.28
2023-04-08T08:42:52.561Z,68.50
2023-04-08T08:45:22.770Z,65.35
2023-04-08T08:47:51.234Z,61.80
2023-04-08T08:50:18.725Z,65.53
2023-04-08T08:52:50.485Z,67.68
2023-04-08T08:55:41.334Z,59.65
2023-04-08T08:58:10.852Z,63.15
2023-04-08T09:00:41.408Z,64.72
2023-04-08T09:03:16.165Z,57.10
2023-04-08T09:05:56.252Z,59.20
2023-04-08T09:08:25.136Z,60.42
2023-04-08T09:10:53.713Z,60.53
2023-04-08T09:13:23.769Z,63.10
2023-04-08T09:16:11.277Z,62.10
2023-04-08T09:18:39.638Z,65.55
2023-04-08T09:21:08.547Z,62.80
2023-04-08T09:23:43.592Z,60.67
2023-04-08T09:26:10.909Z,67.20
2023-04-08T09:28:39.088Z,61.15
2023-04-08T09:31:28.059Z,64.60
2023-04-08T09:34:02.236Z,63.60
2023-04-08T09:36:29.351Z,61.75
2023-04-08T09:38:56.950Z,62.30
2023-04-08T09:41:24.740Z,65.95
2023-04-08T09:43:55.167Z,61.10
2023-04-08T09:46:33.693Z,69.82
2023-04-08T09:49:13.240Z,61.83
2023-04-08T09:51:53.280Z,66.43
2023-04-08T09:54:23.218Z,62.65
2023-04-08T09:57:00.906Z,60.20
2023-04-08T09:59:31.415Z,61.33
2023-04-08T10:02:04.970Z,61.50
2023-04-08T10:04:35.774Z,60.10
2023-04-08T10:07:06.641Z,63.85
2023-04-08T10:09:34.208Z,53.33
2023-04-08T10:12:03.298Z,56.58
2023-04-08T10:14:30.081Z,55.35
2023-04-08T10:17:30.676Z,58.30
2023-04-08T10:19:58.867Z,58.17
2023-04-08T10:22:28.674Z,58.67
2023-04-08T10:25:17.195Z,61.65
2023-04-08T10:27:45.470Z,57.25
2023-04-08T10:30:27.497Z,52.50
2023-04-08T10:33:02.115Z,51.97
2023-04-08T10:35:42.773Z,50.75
2023-04-08T10:38:09.835Z,55.97
2023-04-08T10:40:39.125Z,57.88
2023-04-08T10:43:07.271Z,55.33
2023-04-08T10:45:34.751Z,54.22
2023-04-08T10:48:24.821Z,46.60
2023-04-08T10:51:03.010Z,45.13
2023-04-08T10:53:33.513Z,51.00
2023-04-08T10:56:07.883Z,48.95
2023-04-08T10:58:36.553Z,50.55
2023-04-08T11:01:05.603Z,47.58
2023-04-08T11:03:34.334Z,50.55
2023-04-08T11:06:02.575Z,47.42
2023-04-08T11:08:32.447Z,54.00
2023-04-08T11:11:04.130Z,54.85
2023-04-08T11:13:31.791Z,55.00
2023-04-08T11:16:00.449Z,53.92
2023-04-08T11:18:27.869Z,50.45
2023-04-08T11:20:55.110Z,53.63
2023-04-08T11:23:23.376Z,56.28
2023-04-08T11:25:51.464Z,60.03
2023-04-08T11:28:19.101Z,57.08
2023-04-08T11:30:46.073Z,52.40
2023-04-08T11:33:14.133Z,54.67
2023-04-08T11:35:42.043Z,57.65
2023-04-08T11:38:10.499Z,55.63
2023-04-08T11:40:38.109Z,57.95
2023-04-08T11:43:12.479Z,54.53
2023-04-08T11:45:40.747Z,58.55
2023-04-08T11:48:16.760Z,63.75
2023-04-08T11:50:45.243Z,65.47
2023-04-08T11:53:21.911Z,75.95
2023-04-08T11:55:49.617Z,65.85
2023-04-08T11:58:16.867Z,68.38
2023-04-08T12:00:44.456Z,66.40
2023-04-08T12:03:12.555Z,74.95
2023-04-08T12:05:39.622Z,76.97
2023-04-08T12:08:06.639Z,77.57
2023-04-08T12:10:33.454Z,74.18
2023-04-08T12:13:00.755Z,73.03
2023-04-08T12:15:27.681Z,68.50
2023-04-08T12:17:54.491Z,67.72
2023-04-08T12:20:21.441Z,74.85
2023-04-08T12:22:48.317Z,68.70
2023-04-08T12:25:15.431Z,61.67
2023-04-08T12:27:42.328Z,62.08
2023-04-08T12:30:09.838Z,65.00
2023-04-08T12:32:36.652Z,71.15
2023-04-08T12:35:03.553Z,68.72
2023-04-08T12:37:30.631Z,68.40
2023-04-08T12:39:57.803Z,68.35
2023-04-08T12:42:24.965Z,64.45
2023-04-08T12:44:52.030Z,69.88
2023-04-08T12:47:19.775Z,61.92
2023-04-08T12:49:49.689Z,67.25
2023-04-08T12:52:17.433Z,66.28
2023-04-08T12:54:45.160Z,65.47
2023-04-08T12:57:12.646Z,66.50
2023-04-08T12:59:40.396Z,68.07
2023-04-08T13:02:08.137Z,68.28
2023-04-08T13:04:35.412Z,57.33
2023-04-08T13:07:02.510Z,60.85
2023-04-08T13:09:31.151Z,60.53
2023-04-08T13:11:58.518Z,61.75
2023-04-08T13:14:25.740Z,54.15
2023-04-08T13:16:52.709Z,50.75
2023-04-08T13:19:19.979Z,47.38
2023-04-08T13:21:47.083Z,44.53
2023-04-08T13:24:14.243Z,46.90
2023-04-08T13:26:41.392Z,46.13
2023-04-08T13:29:08.505Z,46.38
2023-04-08T13:31:35.487Z,45.13
2023-04-08T13:34:02.522Z,42.33
2023-04-08T13:36:29.462Z,54.13
2023-04-08T13:38:56.901Z,47.10
2023-04-08T13:41:25.509Z,52.92
2023-04-08T13:43:52.529Z,49.58
2023-04-08T13:46:19.356Z,47.47
2023-04-08T13:48:46.573Z,50.10
2023-04-08T13:51:13.625Z,48.25
2023-04-08T13:53:40.881Z,43.78
2023-04-08T13:56:08.269Z,51.47
2023-04-08T13:58:35.081Z,43.75
2023-04-08T14:01:01.923Z,48.78
2023-04-08T14:03:28.951Z,43.60
2023-04-08T14:05:56.196Z,54.55
2023-04-08T14:08:26.245Z,55.17
2023-04-08T14:10:55.874Z,61.72
2023-04-08T14:13:22.808Z,51.65
2023-04-08T14:15:52.640Z,51.38
2023-04-08T14:18:19.713Z,48.85
2023-04-08T14:20:46.672Z,48.35
2023-04-08T14:23:13.776Z,48.13
2023-04-08T14:25:41.183Z,48.22
2023-04-08T14:28:08.355Z,45.28
2023-04-08T14:30:37.932Z,45.90
2023-04-08T14:33:05.716Z,47.47
2023-04-08T14:35:32.703Z,55.72
2023-04-08T14:38:00.152Z,47.97
2023-04-08T14:40:27.146Z,58.17
2023-04-08T14:42:54.252Z,48.72
2023-04-08T14:45:22.152Z,57.05
2023-04-08T14:47:49.052Z,56.22
2023-04-08T14:50:16.308Z,50.08
2023-04-08T14:52:45.203Z,50.72
2023-04-08T14:55:12.640Z,51.92
2023-04-08T14:57:39.538Z,50.47
2023-04-08T15:00:07.774Z,50.13
2023-04-08T15:02:35.039Z,51.47
2023-04-08T15:05:02.206Z,49.33
2023-04-08T15:07:29.330Z,44.95
2023-04-08T15:09:57.048Z,45.63
2023-04-08T15:12:24.979Z,41.42
2023-04-08T15:14:51.895Z,42.53
2023-04-08T15:17:18.771Z,43.95
2023-04-08T15:19:46.492Z,40.33
2023-04-08T15:22:13.724Z,41.08
2023-04-08T15:24:40.876Z,45.63
2023-04-08T15:27:08.045Z,42.35
2023-04-08T15:29:35.156Z,38.35
2023-04-08T15:32:02.453Z,32.97
2023-04-08T15:34:29.452Z,30.20
2023-04-08T15:36:59.278Z,29.05
2023-04-08T15:39:26.727Z,31.13
2023-04-08T15:41:54.105Z,29.15
2023-04-08T15:44:20.960Z,26.48
2023-04-08T15:46:47.801Z,29.60
2023-04-08T15:49:15.268Z,30.80
2023-04-08T15:51:44.654Z,29.45
2023-04-08T15:54:11.862Z,25.15
2023-04-08T15:56:39.305Z,26.20
2023-04-08T15:59:06.357Z,26.65
2023-04-08T16:01:33.737Z,27.40
2023-04-08T16:04:01.163Z,27.08
2023-04-08T16:06:29.682Z,23.88
2023-04-08T16:08:57.200Z,27.10
2023-04-08T16:11:25.317Z,23.73
2023-04-08T16:13:52.722Z,22.65
2023-04-08T16:16:19.883Z,21.52
2023-04-08T16:18:47.779Z,22.23
2023-04-08T16:21:14.789Z,21.52
2023-04-08T16:23:41.949Z,19.75
2023-04-08T16:26:09.092Z,18.33
2023-04-08T16:28:40.333Z,18.75
2023-04-08T16:31:07.702Z,18.98
2023-04-08T16:33:34.490Z,20.55
2023-04-08T16:36:01.713Z,17.73
2023-04-08T16:38:28.516Z,19.20
2023-04-08T16:40:58.536Z,16.23
2023-04-08T16:43:25.939Z,16.40
2023-04-08T16:45:53.644Z,17.35
2023-04-08T16:48:20.853Z,20.02
2023-04-08T16:50:47.699Z,15.98
2023-04-08T16:53:14.542Z,13.30
2023-04-08T16:55:41.534Z,18.08
2023-04-08T16:58:08.766Z,15.85
2023-04-08T17:00:36.716Z,19.67
2023-04-08T17:03:03.947Z,16.17
2023-04-08T17:05:31.001Z,16.90
2023-04-08T17:07:57.907Z,18.08
2023-04-08T17:10:25.231Z,22.88
2023-04-08T17:12:52.125Z,21.85
2023-04-08T17:15:19.817Z,21.88
2023-04-08T17:17:47.991Z,16.85
2023-04-08T17:20:15.848Z,17.73
2023-04-08T17:22:43.130Z,16.15
2023-04-08T17:25:11.054Z,16.83
2023-04-08T17:27:37.871Z,15.68
2023-04-08T17:30:05.203Z,15.18
2023-04-08T17:32:32.552Z,15.68
2023-04-08T17:34:59.890Z,19.10
2023-04-08T17:37:27.013Z,17.80
2023-04-08T17:39:53.793Z,18.00
2023-04-08T17:42:22.976Z,16.73
2023-04-08T17:44:50.193Z,18.95
2023-04-08T17:47:17.441Z,19.80
2023-04-08T17:49:44.279Z,20.33
2023-04-08T17:52:11.122Z,17.20
2023-04-08T17:54:38.078Z,20.52
2023-04-08T17:57:05.227Z,19.13
2023-04-08T17:59:32.176Z,26.40
2023-04-08T18:01:59.073Z,20.63
2023-04-08T18:04:26.319Z,22.73
2023-04-08T18:06:53.315Z,22.80
2023-04-08T18:09:20.753Z,19.92
2023-04-08T18:11:47.765Z,20.00
2023-04-08T18:14:14.890Z,23.13
2023-04-08T18:16:42.030Z,25.92
2023-04-08T18:19:09.180Z,27.98
2023-04-08T18:21:37.062Z,25.77
2023-04-08T18:24:04.031Z,26.58
2023-04-08T18:26:33.529Z,29.00
2023-04-08T18:29:00.806Z,25.55
2023-04-08T18:31:27.918Z,25.23
2023-04-08T18:33:56.321Z,28.65
2023-04-08T18:36:23.158Z,27.35
2023-04-08T18:38:49.962Z,28.80
2023-04-08T18:41:18.542Z,33.20
2023-04-08T18:43:49.575Z,32.63
2023-04-08T18:46:17.228Z,31.52
2023-04-08T18:48:44.339Z,33.30
2023-04-08T18:51:13.648Z,32.95
2023-04-08T18:53:40.497Z,31.02
2023-04-08T18:56:15.044Z,29.02
2023-04-08T18:58:48.149Z,30.95
2023-04-08T19:01:16.408Z,35.78
2023-04-08T19:03:46.464Z,31.05
2023-04-08T19:06:13.701Z,33.13
2023-04-08T19:08:41.949Z,32.63
2023-04-08T19:11:09.081Z,33.90
2023-04-08T19:13:36.004Z,35.38
2023-04-08T19:16:03.323Z,34.60
2023-04-08T19:18:33.007Z,36.92
2023-04-08T19:21:01.803Z,36.15
2023-04-08T19:23:28.923Z,32.58
2023-04-08T19:25:56.848Z,41.63
2023-04-08T19:28:23.966Z,36.05
2023-04-08T19:30:51.341Z,36.88
2023-04-08T19:33:18.693Z,33.80
2023-04-08T19:35:48.009Z,39.15
2023-04-08T19:38:15.239Z,36.58
2023-04-08T19:40:42.416Z,38.28
2023-04-08T19:43:09.972Z,38.75
2023-04-08T19:45:36.913Z,45.05
2023-04-08T19:48:06.039Z,43.30
2023-04-08T19:50:33.300Z,47.35
2023-04-08T19:53:00.524Z,39.38
2023-04-08T19:55:37.172Z,38.95
2023-04-08T19:58:05.414Z,45.50
2023-04-08T20:00:33.845Z,40.33
2023-04-08T20:03:01.979Z,41.35
2023-04-08T20:05:29.520Z,40.50
2023-04-08T20:07:56.566Z,43.25
2023-04-08T20:10:23.913Z,40.35
2023-04-08T20:12:52.328Z,43.28
2023-04-08T20:15:24.653Z,41.13
2023-04-08T20:20:23.193Z,47.95
2023-04-08T20:22:50.579Z,42.58
2023-04-08T20:25:17.762Z,46.17
2023-04-08T20:27:45.402Z,43.83
2023-04-08T20:30:15.073Z,49.78
2023-04-08T20:32:42.342Z,41.42
2023-04-08T20:35:09.604Z,42.88
2023-04-08T20:37:37.203Z,49.55
2023-04-08T20:40:04.646Z,38.58
2023-04-08T20:42:31.630Z,44.28
2023-04-08T20:45:00.714Z,42.92
2023-04-08T20:47:27.559Z,44.15
2023-04-08T20:49:54.400Z,39.63
2023-04-08T20:52:21.561Z,46.30
2023-04-08T20:54:48.712Z,46.28
2023-04-08T20:57:16.032Z,40.88
2023-04-08T20:59:42.969Z,40.17
2023-04-08T21:02:11.590Z,41.63
2023-04-08T21:04:41.166Z,46.17
2023-04-08T21:07:08.412Z,42.63
2023-04-08T21:09:35.661Z,40.95
2023-04-08T21:12:08.989Z,48.50
2023-04-08T21:14:36.551Z,46.03
2023-04-08T21:17:14.995Z,48.45
2023-04-08T21:19:42.280Z,45.47
2023-04-08T21:22:11.657Z,48.30
2023-04-08T21:24:38.815Z,45.38
2023-04-08T21:27:06.375Z,39.80
2023-04-08T21:29:33.589Z,43.17
2023-04-08T21:32:01.479Z,42.17
2023-04-08T21:34:28.313Z,43.60
2023-04-08T21:36:55.063Z,42.72
2023-04-08T21:39:22.330Z,43.50
2023-04-08T21:41:49.529Z,42.15
2023-04-08T21:44:16.628Z,44.63
2023-04-08T21:46:43.858Z,40.50
2023-04-08T21:49:11.776Z,44.60
2023-04-08T21:51:39.522Z,39.95
2023-04-08T21:54:07.157Z,40.85
2023-04-08T21:56:33.989Z,41.90
2023-04-08T21:59:00.867Z,44.42
2023-04-08T22:01:28.071Z,44.67
2023-04-08T22:03:55.700Z,42.58
2023-04-08T22:06:31.515Z,42.50
2023-04-08T22:08:59.738Z,42.90
2023-04-08T22:11:26.611Z,41.03
2023-04-08T22:13:53.778Z,44.65
2023-04-08T22:16:20.783Z,38.78
2023-04-08T22:18:47.750Z,45.22
2023-04-08T22:21:14.604Z,47.92
2023-04-08T22:23:42.226Z,48.75
2023-04-08T22:26:09.112Z,43.65
2023-04-08T22:28:36.099Z,41.55
2023-04-08T22:31:03.267Z,40.47
2023-04-08T22:33:30.412Z,42.83
2023-04-08T22:35:58.165Z,44.45
2023-04-08T22:38:25.041Z,42.90
2023-04-08T22:40:53.395Z,44.58
2023-04-08T22:43:20.994Z,35.72
2023-04-08T22:45:47.818Z,43.40
2023-04-08T22:48:14.863Z,41.08
2023-04-08T22:50:42.616Z,43.28
2023-04-08T22:53:09.711Z,40.97
2023-04-08T22:55:36.566Z,36.53
2023-04-08T22:58:03.816Z,43.90
2023-04-08T23:00:30.900Z,45.13
2023-04-08T23:02:58.280Z,44.05
2023-04-08T23:05:25.461Z,42.05
2023-04-08T23:07:52.635Z,44.70
2023-04-08T23:10:19.877Z,42.05
2023-04-08T23:12:46.806Z,43.70
2023-04-08T23:15:13.935Z,51.05
2023-04-08T23:17:41.118Z,43.38
2023-04-08T23:20:08.870Z,50.85
2023-04-08T23:22:35.806Z,51.38
2023-04-08T23:25:02.732Z,50.40
2023-04-08T23:27:29.634Z,53.58
2023-04-08T23:29:56.483Z,62.70
2023-04-08T23:32:23.435Z,61.22
2023-04-08T23:34:50.661Z,51.50
2023-04-08T23:37:18.013Z,56.00
2023-04-08T23:39:45.062Z,56.55
2023-04-08T23:42:11.873Z,60.42
2023-04-08T23:44:38.649Z,61.17
2023-04-08T23:47:08.280Z,60.55
2023-04-08T23:49:35.706Z,62.00
2023-04-08T23:52:02.656Z,59.20
2023-04-08T23:54:32.802Z,59.63
2023-04-08T23:57:01.681Z,59.75
2023-04-08T23:59:31.339Z,59.90
